Towne Oaks, Illinois
Current Conditions -  °F | °C
As of 8:07 PM on Friday 21 Nov 2014 (Local Time) from KPIA Reporting Station
Overcast Overcast  
Wind Chill: 28°   Ceiling: 2200
Heat Index: 37°   Visibility: 10mi
Dew Point: 15°   Wind: 15mph
Humidity: 41%   Direction: 160°SSE
Pressure: 30.25"   Gusts: NA
Location:  40.5996°N, 89.5548°W
Report Text: KPIA 220207Z 16013KT 10SM BKN022 OVC030 03/M09 A3025 RMK AO2 T00281094
Loading
Personal Weather Stations






























Interactive Weather Map New forecast layout! Learn more

10-Day Weather Forecast

Advertisements
Track Severe Weather on mobile